Terminal Aerodrome Forecast
Issued by NWS Grand Rapids, MI

Home | Current Version | Previous Version | Text Only | Print | Product List | Glossary On
Versions: 1 2 3 4 5 6 7 8 9 10 11 12 13 14 15 16 17 18 19 20
000
FTUS43 KGRR 281355 AAB
TAFGRR
TAF AMD
KGRR 281355Z 2814/2912 24010KT P6SM OVC025
     FM281730 24010KT P6SM VCSH BKN090
     FM290000 19005KT 5SM -SHRA OVC070
     FM290400 VRB03KT P6SM -SHRA OVC035
     FM290600 02004KT P6SM OVC025=

USA.gov is the U.S. government's official web portal to all federal, state and local government web resources and services.